createdAt,value
2022-10-20T00:00:54.652Z,89.22
2022-10-20T00:01:54.641Z,89.15
2022-10-20T00:02:54.694Z,89.15
2022-10-20T00:03:54.648Z,89.25
2022-10-20T00:04:54.610Z,89.25
2022-10-20T00:05:54.586Z,89.36
2022-10-20T00:06:54.578Z,89.42
2022-10-20T00:07:54.565Z,89.42
2022-10-20T00:08:54.635Z,89.25
2022-10-20T00:09:54.535Z,89.22
2022-10-20T00:10:54.526Z,89.22
2022-10-20T00:11:54.514Z,89.11
2022-10-20T00:12:54.495Z,88.70
2022-10-20T00:13:54.501Z,88.64
2022-10-20T00:14:54.485Z,88.74
2022-10-20T00:15:54.464Z,88.84
2022-10-20T00:16:54.445Z,88.95
2022-10-20T00:17:54.436Z,89.05
2022-10-20T00:18:54.433Z,89.25
2022-10-20T00:19:54.422Z,89.56
2022-10-20T00:20:54.389Z,89.56
2022-10-20T00:21:54.386Z,89.56
2022-10-20T00:22:54.394Z,89.46
2022-10-20T00:23:54.375Z,89.36
2022-10-20T00:24:54.373Z,89.36
2022-10-20T00:25:54.366Z,89.25
2022-10-20T00:26:54.314Z,89.36
2022-10-20T00:27:54.309Z,89.36
2022-10-20T00:28:54.303Z,89.15
2022-10-20T00:29:54.283Z,89.15
2022-10-20T00:30:54.266Z,89.36
2022-10-20T00:31:54.257Z,89.46
2022-10-20T00:32:54.247Z,89.56
2022-10-20T00:33:54.237Z,89.46
2022-10-20T00:34:54.213Z,89.56
2022-10-20T00:35:54.203Z,89.56
2022-10-20T00:36:54.191Z,89.36
2022-10-20T00:37:54.175Z,89.25
2022-10-20T00:38:54.179Z,89.40
2022-10-20T00:39:54.166Z,89.56
2022-10-20T00:40:54.139Z,89.81
2022-10-20T00:41:54.125Z,89.81
2022-10-20T00:42:54.111Z,90.01
2022-10-20T00:43:54.115Z,90.22
2022-10-20T00:44:54.098Z,90.22
2022-10-20T00:45:54.076Z,90.33
2022-10-20T00:46:54.057Z,90.43
2022-10-20T00:47:54.056Z,90.53
2022-10-20T00:48:54.050Z,90.84
2022-10-20T00:49:54.020Z,90.84
2022-10-20T00:50:54.011Z,90.73
2022-10-20T00:51:53.997Z,90.73
2022-10-20T00:52:53.986Z,90.64
2022-10-20T00:53:53.977Z,90.73
2022-10-20T00:54:53.967Z,90.73
2022-10-20T00:55:53.945Z,90.64
2022-10-20T00:56:53.959Z,90.73
2022-10-20T00:57:53.923Z,90.84
2022-10-20T00:58:53.901Z,90.84
2022-10-20T00:59:53.918Z,90.84
2022-10-20T01:00:53.871Z,90.73
2022-10-20T01:01:53.955Z,90.73
2022-10-20T01:02:53.853Z,90.73
2022-10-20T01:03:53.860Z,90.73
2022-10-20T01:04:53.834Z,90.64
2022-10-20T01:05:53.812Z,90.53
2022-10-20T01:06:53.800Z,90.64
2022-10-20T01:07:53.791Z,90.73
2022-10-20T01:08:53.809Z,90.73
2022-10-20T01:09:53.785Z,90.64
2022-10-20T01:10:53.744Z,90.43
2022-10-20T01:11:53.739Z,90.43
2022-10-20T01:12:53.713Z,90.43
2022-10-20T01:13:53.710Z,90.53
2022-10-20T01:14:53.715Z,90.53
2022-10-20T01:15:53.681Z,90.53
2022-10-20T01:16:53.671Z,90.53
2022-10-20T01:17:53.665Z,90.53
2022-10-20T01:18:53.639Z,90.53
2022-10-20T01:19:53.663Z,90.53
2022-10-20T01:20:53.612Z,90.53
2022-10-20T01:21:53.600Z,90.53
2022-10-20T01:22:53.591Z,90.53
2022-10-20T01:23:53.585Z,90.53
2022-10-20T01:24:53.595Z,90.53
2022-10-20T01:25:53.562Z,90.43
2022-10-20T01:26:53.534Z,90.53
2022-10-20T01:27:53.524Z,90.53
2022-10-20T01:28:53.509Z,90.53
2022-10-20T01:29:53.519Z,90.33
2022-10-20T01:30:53.510Z,90.22
2022-10-20T01:31:53.470Z,90.22
2022-10-20T01:32:53.458Z,90.12
2022-10-20T01:33:53.468Z,90.01
2022-10-20T01:34:53.439Z,90.22
2022-10-20T01:35:53.427Z,90.43
2022-10-20T01:36:53.423Z,90.53
2022-10-20T01:37:53.560Z,90.53
2022-10-20T01:38:53.378Z,90.47
2022-10-20T01:39:53.382Z,90.67
2022-10-20T01:40:53.354Z,90.84
2022-10-20T01:41:53.374Z,90.84
2022-10-20T01:42:53.333Z,90.84
2022-10-20T01:43:53.319Z,90.73
2022-10-20T01:44:53.305Z,90.84
2022-10-20T01:45:53.289Z,90.84
2022-10-20T01:46:53.305Z,90.84
2022-10-20T01:47:53.266Z,90.73
2022-10-20T01:48:53.248Z,90.57
2022-10-20T01:49:53.256Z,90.67
2022-10-20T01:50:53.219Z,90.78
2022-10-20T01:51:53.223Z,90.88
2022-10-20T01:52:53.248Z,91.09
2022-10-20T01:53:53.187Z,91.30
2022-10-20T01:54:53.192Z,91.54
2022-10-20T01:55:53.164Z,91.75
2022-10-20T01:56:53.151Z,91.91
2022-10-20T01:57:53.143Z,91.96
2022-10-20T01:58:53.120Z,91.96
2022-10-20T01:59:53.120Z,92.06
2022-10-20T02:00:53.159Z,92.16
2022-10-20T02:01:53.113Z,92.27
2022-10-20T02:02:53.079Z,92.27
2022-10-20T02:03:53.053Z,92.37
2022-10-20T02:04:53.051Z,92.37
2022-10-20T02:05:53.047Z,92.37
2022-10-20T02:06:53.022Z,92.27
2022-10-20T02:07:53.005Z,92.27
2022-10-20T02:08:53.029Z,92.27
2022-10-20T02:09:52.987Z,92.27
2022-10-20T02:10:52.961Z,92.37
2022-10-20T02:11:52.960Z,92.47
2022-10-20T02:12:52.944Z,92.61
2022-10-20T02:13:52.935Z,92.72
2022-10-20T02:14:52.920Z,92.82
2022-10-20T02:15:52.891Z,92.93
2022-10-20T02:16:52.897Z,93.03
2022-10-20T02:17:52.870Z,93.13
2022-10-20T02:18:52.901Z,93.34
2022-10-20T02:19:52.854Z,93.34
2022-10-20T02:20:52.847Z,93.34
2022-10-20T02:21:52.812Z,93.34
2022-10-20T02:22:52.811Z,93.49
2022-10-20T02:23:52.799Z,93.54
2022-10-20T02:24:52.781Z,93.65
2022-10-20T02:25:52.778Z,93.65
2022-10-20T02:26:52.747Z,93.65
2022-10-20T02:27:52.761Z,93.65
2022-10-20T02:28:52.747Z,93.54
2022-10-20T02:29:52.720Z,93.44
2022-10-20T02:30:52.702Z,93.34
2022-10-20T02:31:52.697Z,93.24
2022-10-20T02:32:52.684Z,93.13
2022-10-20T02:33:52.678Z,93.03
2022-10-20T02:34:52.654Z,93.07
2022-10-20T02:35:52.634Z,93.18
2022-10-20T02:36:52.629Z,93.28
2022-10-20T02:37:52.622Z,93.34
2022-10-20T02:38:52.621Z,93.34
2022-10-20T02:39:52.593Z,93.34
2022-10-20T02:40:52.568Z,93.24
2022-10-20T02:41:52.561Z,93.18
2022-10-20T02:42:52.545Z,93.28
2022-10-20T02:43:52.570Z,93.38
2022-10-20T02:44:52.531Z,93.59
2022-10-20T02:45:52.502Z,93.79
2022-10-20T02:46:52.499Z,93.90
2022-10-20T02:47:52.513Z,94.00
2022-10-20T02:48:52.482Z,94.00
2022-10-20T02:49:52.448Z,94.00
2022-10-20T02:50:52.439Z,94.10
2022-10-20T02:51:52.425Z,94.10
2022-10-20T02:52:52.415Z,94.21
2022-10-20T02:53:52.436Z,94.31
2022-10-20T02:54:52.384Z,94.31
2022-10-20T02:55:52.366Z,94.31
2022-10-20T02:56:52.367Z,94.21
2022-10-20T02:57:52.359Z,94.00
2022-10-20T02:58:52.353Z,93.90
2022-10-20T02:59:52.320Z,93.90
2022-10-20T03:00:52.319Z,93.90
2022-10-20T03:01:52.409Z,93.90
2022-10-20T03:02:52.300Z,93.94
2022-10-20T03:03:52.277Z,93.94
2022-10-20T03:04:52.253Z,94.04
2022-10-20T03:05:52.232Z,94.04
2022-10-20T03:06:52.252Z,94.15
2022-10-20T03:07:52.212Z,94.15
2022-10-20T03:08:52.266Z,94.35
2022-10-20T03:09:52.191Z,94.46
2022-10-20T03:10:52.219Z,94.56
2022-10-20T03:11:52.155Z,94.67
2022-10-20T03:12:52.194Z,94.56
2022-10-20T03:13:52.172Z,94.56
2022-10-20T03:14:52.133Z,94.67
2022-10-20T03:15:52.101Z,94.67
2022-10-20T03:16:52.099Z,94.67
2022-10-20T03:17:52.078Z,94.67
2022-10-20T03:18:52.089Z,94.67
2022-10-20T03:19:52.069Z,94.56
2022-10-20T03:20:52.051Z,94.46
2022-10-20T03:21:52.029Z,94.35
2022-10-20T03:22:52.040Z,94.15
2022-10-20T03:23:52.034Z,94.15
2022-10-20T03:24:51.998Z,94.04
2022-10-20T03:25:51.979Z,94.15
2022-10-20T03:26:51.978Z,94.15
2022-10-20T03:27:51.954Z,94.25
2022-10-20T03:28:51.981Z,94.25
2022-10-20T03:29:51.918Z,94.25
2022-10-20T03:30:51.921Z,94.35
2022-10-20T03:31:51.905Z,94.35
2022-10-20T03:32:51.885Z,94.56
2022-10-20T03:33:51.901Z,94.56
2022-10-20T03:34:51.867Z,94.46
2022-10-20T03:35:51.844Z,94.35
2022-10-20T03:36:51.847Z,94.25
2022-10-20T03:37:51.818Z,94.25
2022-10-20T03:38:51.827Z,94.04
2022-10-20T03:39:51.828Z,94.04
2022-10-20T03:40:51.828Z,94.04
2022-10-20T03:41:51.804Z,94.04
2022-10-20T03:42:51.767Z,94.04
2022-10-20T03:43:51.774Z,94.04
2022-10-20T03:44:51.737Z,94.19
2022-10-20T03:45:54.537Z,94.25
2022-10-20T03:46:51.708Z,94.35
2022-10-20T03:47:51.716Z,94.35
2022-10-20T03:48:51.695Z,94.25
2022-10-20T03:49:51.730Z,94.15
2022-10-20T03:50:51.652Z,94.15
2022-10-20T03:51:51.635Z,94.15
2022-10-20T03:52:51.672Z,94.04
2022-10-20T03:53:51.622Z,94.04
2022-10-20T03:54:51.606Z,93.94
2022-10-20T03:55:51.588Z,93.84
2022-10-20T03:56:51.585Z,93.73
2022-10-20T03:57:51.586Z,93.63
2022-10-20T03:58:51.594Z,93.53
2022-10-20T03:59:51.531Z,93.53
2022-10-20T04:00:51.522Z,93.53
2022-10-20T04:01:51.572Z,93.53
2022-10-20T04:02:51.507Z,93.47
2022-10-20T04:03:51.489Z,93.37
2022-10-20T04:04:51.494Z,93.37
2022-10-20T04:05:51.459Z,93.47
2022-10-20T04:06:51.441Z,93.62
2022-10-20T04:07:51.440Z,93.68
2022-10-20T04:08:51.465Z,93.88
2022-10-20T04:09:51.398Z,94.09
2022-10-20T04:10:51.392Z,94.29
2022-10-20T04:11:51.375Z,94.44
2022-10-20T04:12:51.371Z,94.65
2022-10-20T04:13:51.389Z,94.75
2022-10-20T04:14:51.347Z,94.85
2022-10-20T04:15:51.338Z,95.06
2022-10-20T04:16:51.310Z,95.17
2022-10-20T04:17:51.289Z,95.27
2022-10-20T04:18:51.333Z,95.37
2022-10-20T04:19:51.274Z,95.37
2022-10-20T04:20:51.265Z,95.32
2022-10-20T04:21:51.236Z,95.43
2022-10-20T04:22:51.238Z,95.43
2022-10-20T04:23:51.254Z,95.37
2022-10-20T04:24:51.210Z,95.27
2022-10-20T04:25:51.196Z,95.37
2022-10-20T04:26:51.207Z,95.37
2022-10-20T04:27:51.162Z,95.37
2022-10-20T04:28:51.166Z,95.37
2022-10-20T04:29:51.149Z,95.37
2022-10-20T04:30:51.123Z,95.48
2022-10-20T04:31:51.105Z,95.48
2022-10-20T04:32:51.112Z,95.57
2022-10-20T04:33:51.093Z,95.57
2022-10-20T04:34:51.099Z,95.57
2022-10-20T04:36:51.050Z,95.78
2022-10-20T04:37:51.026Z,95.78
2022-10-20T04:38:51.045Z,95.78
2022-10-20T04:39:50.995Z,95.89
2022-10-20T04:40:50.993Z,95.94
2022-10-20T04:41:50.973Z,96.03
2022-10-20T04:42:50.980Z,96.14
2022-10-20T04:43:50.996Z,96.14
2022-10-20T04:44:51.000Z,96.24
2022-10-20T04:45:50.920Z,96.34
2022-10-20T04:46:50.911Z,96.45
2022-10-20T04:47:50.898Z,96.45
2022-10-20T04:48:50.897Z,96.66
2022-10-20T04:49:50.866Z,96.66
2022-10-20T04:50:50.873Z,96.66
2022-10-20T04:51:50.845Z,96.66
2022-10-20T04:52:50.829Z,96.66
2022-10-20T04:53:50.817Z,96.66
2022-10-20T04:54:50.833Z,96.66
2022-10-20T04:55:50.779Z,96.76
2022-10-20T04:56:50.772Z,96.86
2022-10-20T04:57:50.765Z,96.97
2022-10-20T04:58:50.760Z,97.07
2022-10-20T04:59:50.747Z,97.07
2022-10-20T05:00:50.725Z,97.17
2022-10-20T05:01:50.781Z,97.28
2022-10-20T05:02:50.690Z,97.28
2022-10-20T05:03:50.693Z,97.28
2022-10-20T05:04:50.676Z,97.28
2022-10-20T05:05:50.664Z,97.33
2022-10-20T05:06:50.639Z,97.28
2022-10-20T05:07:50.622Z,97.28
2022-10-20T05:08:50.683Z,97.17
2022-10-20T05:09:50.615Z,97.28
2022-10-20T05:10:50.595Z,97.28
2022-10-20T05:11:50.569Z,97.28
2022-10-20T05:12:50.555Z,97.17
2022-10-20T05:13:50.577Z,97.28
2022-10-20T05:14:50.532Z,97.28
2022-10-20T05:15:50.521Z,97.38
2022-10-20T05:16:50.499Z,97.28
2022-10-20T05:17:50.492Z,97.38
2022-10-20T05:18:50.513Z,97.38
2022-10-20T05:19:50.464Z,97.49
2022-10-20T05:21:07.783Z,97.59
2022-10-20T05:21:51.433Z,97.59
2022-10-20T05:22:50.426Z,97.59
2022-10-20T05:23:50.427Z,97.59
2022-10-20T05:24:50.401Z,97.59
2022-10-20T05:25:50.412Z,97.69
2022-10-20T05:26:50.367Z,97.79
2022-10-20T05:27:50.374Z,97.89
2022-10-20T05:28:50.342Z,98.00
2022-10-20T05:29:50.343Z,98.00
2022-10-20T05:30:50.343Z,98.00
2022-10-20T05:31:50.294Z,97.96
2022-10-20T05:32:50.279Z,98.00
2022-10-20T05:33:50.281Z,97.89
2022-10-20T05:34:50.279Z,97.89
2022-10-20T05:35:50.240Z,98.00
2022-10-20T05:36:50.233Z,97.89
2022-10-20T05:37:50.210Z,97.89
2022-10-20T05:38:50.203Z,98.00
2022-10-20T05:39:50.230Z,98.00
2022-10-20T05:40:50.176Z,98.10
2022-10-20T05:41:50.153Z,98.10
2022-10-20T05:42:50.334Z,98.10
2022-10-20T05:43:50.142Z,98.21
2022-10-20T05:44:50.131Z,98.31
2022-10-20T05:45:50.102Z,98.31
2022-10-20T05:46:50.106Z,98.31
2022-10-20T05:47:50.083Z,98.41
2022-10-20T05:48:50.072Z,98.37
2022-10-20T05:49:50.060Z,98.37
2022-10-20T05:50:50.060Z,98.37
2022-10-20T05:51:50.038Z,98.37
2022-10-20T05:52:50.018Z,98.37
2022-10-20T05:53:49.990Z,98.37
2022-10-20T05:54:50.011Z,98.37
2022-10-20T05:55:49.968Z,98.37
2022-10-20T05:56:49.969Z,98.37
2022-10-20T05:57:49.941Z,98.37
2022-10-20T05:58:49.924Z,98.22
2022-10-20T05:59:49.955Z,98.16
2022-10-20T06:00:49.926Z,98.16
2022-10-20T06:01:49.906Z,98.16
2022-10-20T06:02:49.876Z,98.16
2022-10-20T06:03:49.867Z,98.16
2022-10-20T06:04:49.867Z,98.11
2022-10-20T06:05:49.871Z,98.11
2022-10-20T06:06:49.834Z,98.11
2022-10-20T06:07:49.798Z,98.01
2022-10-20T06:08:49.854Z,98.01
2022-10-20T06:09:49.797Z,98.01
2022-10-20T06:10:49.763Z,98.01
2022-10-20T06:11:49.745Z,98.01
2022-10-20T06:12:49.765Z,98.01
2022-10-20T06:13:52.650Z,97.91
2022-10-20T06:14:49.727Z,97.91
2022-10-20T06:15:49.705Z,97.91
2022-10-20T06:16:50.198Z,97.91
2022-10-20T06:17:49.673Z,97.86
2022-10-20T06:18:49.663Z,97.86
2022-10-20T06:19:49.655Z,97.66
2022-10-20T06:20:49.633Z,97.66
2022-10-20T06:21:49.774Z,97.66
2022-10-20T06:22:49.606Z,97.66
2022-10-20T06:23:49.598Z,97.66
2022-10-20T06:24:49.606Z,97.66
2022-10-20T06:25:49.586Z,97.66
2022-10-20T06:26:49.558Z,97.66
2022-10-20T06:27:49.557Z,97.55
2022-10-20T06:28:49.526Z,97.55
2022-10-20T06:29:49.535Z,97.55
2022-10-20T06:30:49.496Z,97.66
2022-10-20T06:31:49.511Z,97.66
2022-10-20T06:32:49.485Z,97.72
2022-10-20T06:33:49.460Z,97.55
2022-10-20T06:34:49.463Z,97.55
2022-10-20T06:35:49.432Z,97.51
2022-10-20T06:36:49.442Z,97.51
2022-10-20T06:37:49.411Z,97.51
2022-10-20T06:38:49.444Z,97.51
2022-10-20T06:39:49.402Z,97.41
2022-10-20T06:40:49.366Z,97.41
2022-10-20T06:41:49.367Z,97.51
2022-10-20T06:42:49.399Z,97.51
2022-10-20T06:43:49.330Z,97.41
2022-10-20T06:44:49.325Z,97.51
2022-10-20T06:45:49.302Z,97.51
2022-10-20T06:46:49.318Z,97.51
2022-10-20T06:47:49.276Z,97.61
2022-10-20T06:48:49.271Z,97.72
2022-10-20T06:49:49.273Z,97.72
2022-10-20T06:50:49.250Z,97.72
2022-10-20T06:51:49.245Z,97.56
2022-10-20T06:52:49.222Z,97.56
2022-10-20T06:53:49.236Z,97.56
2022-10-20T06:54:49.218Z,97.56
2022-10-20T06:55:49.174Z,97.56
2022-10-20T06:56:49.181Z,97.56
2022-10-20T06:57:49.152Z,97.52
2022-10-20T06:58:49.135Z,97.52
2022-10-20T06:59:49.139Z,97.63
2022-10-20T07:00:49.133Z,97.58
2022-10-20T07:01:49.147Z,97.58
2022-10-20T07:02:49.091Z,97.48
2022-10-20T07:03:49.084Z,97.27
2022-10-20T07:04:49.097Z,96.96
2022-10-20T07:05:49.042Z,96.86
2022-10-20T07:06:49.033Z,96.75
2022-10-20T07:07:49.025Z,96.61
2022-10-20T07:08:49.073Z,96.41
2022-10-20T07:09:49.018Z,96.30
2022-10-20T07:10:48.977Z,96.09
2022-10-20T07:11:48.966Z,95.89
2022-10-20T07:12:49.205Z,95.64
2022-10-20T07:13:48.955Z,95.33
2022-10-20T07:14:48.990Z,95.12
2022-10-20T07:15:48.915Z,94.92
2022-10-20T07:16:48.897Z,94.81
2022-10-20T07:17:48.886Z,94.60
2022-10-20T07:18:48.875Z,94.40
2022-10-20T07:19:48.911Z,94.36
2022-10-20T07:20:48.843Z,94.36
2022-10-20T07:21:48.839Z,94.26
2022-10-20T07:22:48.823Z,94.15
2022-10-20T07:23:48.815Z,93.84
2022-10-20T07:24:48.813Z,93.95
2022-10-20T07:25:48.780Z,94.15
2022-10-20T07:26:48.772Z,94.26
2022-10-20T07:27:48.767Z,94.11
2022-10-20T07:28:53.188Z,94.01
2022-10-20T07:29:49.764Z,93.80
2022-10-20T07:30:48.734Z,93.70
2022-10-20T07:31:48.713Z,93.80
2022-10-20T07:32:48.690Z,93.65
2022-10-20T07:34:06.698Z,93.35
2022-10-20T07:34:49.706Z,93.14
2022-10-20T07:35:48.658Z,93.04
2022-10-20T07:36:48.643Z,92.63
2022-10-20T07:37:48.631Z,92.73
2022-10-20T07:38:48.635Z,92.63
2022-10-20T07:39:48.614Z,92.42
2022-10-20T07:40:48.598Z,92.32
2022-10-20T07:41:48.743Z,92.21
2022-10-20T07:42:48.568Z,92.07
2022-10-20T07:43:48.558Z,92.07
2022-10-20T07:44:48.543Z,92.07
2022-10-20T07:45:48.541Z,92.07
2022-10-20T07:46:48.522Z,91.76
2022-10-20T07:47:48.501Z,91.61
2022-10-20T07:48:48.477Z,91.51
2022-10-20T07:49:48.480Z,91.31
2022-10-20T07:50:48.453Z,91.31
2022-10-20T07:51:48.470Z,91.31
2022-10-20T07:52:48.442Z,91.06
2022-10-20T07:53:48.447Z,90.75
2022-10-20T07:54:48.414Z,90.24
2022-10-20T07:55:48.384Z,90.14
2022-10-20T07:56:48.392Z,90.03
2022-10-20T07:57:48.357Z,89.93
2022-10-20T07:58:48.343Z,89.93
2022-10-20T07:59:48.363Z,90.14
2022-10-20T08:00:48.321Z,90.24
2022-10-20T08:01:48.341Z,90.03
2022-10-20T08:02:48.311Z,89.99
2022-10-20T08:03:48.295Z,89.78
2022-10-20T08:04:48.357Z,89.58
2022-10-20T08:05:48.264Z,89.13
2022-10-20T08:06:48.252Z,88.92
2022-10-20T08:07:48.240Z,88.72
2022-10-20T08:08:48.265Z,88.41
2022-10-20T08:09:48.242Z,88.21
2022-10-20T08:10:48.191Z,88.27
2022-10-20T08:11:51.445Z,87.96
2022-10-20T08:12:49.170Z,88.06
2022-10-20T08:13:48.309Z,87.51
2022-10-20T08:14:50.300Z,87.10
2022-10-20T08:15:49.005Z,86.99
2022-10-20T08:16:49.761Z,86.69
2022-10-20T08:17:48.121Z,86.90
2022-10-20T08:18:49.640Z,86.90
2022-10-20T08:19:51.772Z,86.38
2022-10-20T08:20:48.062Z,86.28
2022-10-20T08:21:48.060Z,86.48
2022-10-20T08:22:48.033Z,86.38
2022-10-20T08:23:48.019Z,86.28
2022-10-20T08:24:48.029Z,85.87
2022-10-20T08:25:48.022Z,86.07
2022-10-20T08:26:48.004Z,85.87
2022-10-20T08:27:47.989Z,85.46
2022-10-20T08:28:47.951Z,85.66
2022-10-20T08:29:55.285Z,85.93
2022-10-20T08:30:48.926Z,86.04
2022-10-20T08:31:47.938Z,85.83
2022-10-20T08:32:47.907Z,85.83
2022-10-20T08:33:52.255Z,85.83
2022-10-20T08:34:47.900Z,85.72
2022-10-20T08:35:47.869Z,85.42
2022-10-20T08:36:47.867Z,85.42
2022-10-20T08:37:47.842Z,85.31
2022-10-20T08:38:47.815Z,85.42
2022-10-20T08:39:47.841Z,85.31
2022-10-20T08:40:47.801Z,84.80
2022-10-20T08:42:48.778Z,84.50
2022-10-20T08:43:47.870Z,84.60
2022-10-20T08:44:47.759Z,84.80
2022-10-20T08:45:47.738Z,84.97
2022-10-20T08:46:47.977Z,84.56
2022-10-20T08:47:47.713Z,84.25
2022-10-20T08:48:47.710Z,84.05
2022-10-20T08:49:47.701Z,84.05
2022-10-20T08:50:47.667Z,83.84
2022-10-20T08:51:47.650Z,83.74
2022-10-20T08:52:47.637Z,83.74
2022-10-20T08:53:47.642Z,83.60
2022-10-20T08:54:52.514Z,83.84
2022-10-20T08:55:47.618Z,83.91
2022-10-20T08:56:47.584Z,83.39
2022-10-20T08:57:47.636Z,83.09
2022-10-20T08:58:47.553Z,82.78
2022-10-20T08:59:47.558Z,82.89
2022-10-20T09:00:47.541Z,82.98
2022-10-20T09:01:47.594Z,82.89
2022-10-20T09:02:47.520Z,82.78
2022-10-20T09:03:47.491Z,82.75
2022-10-20T09:04:47.507Z,82.23
2022-10-20T09:05:47.464Z,81.51
2022-10-20T09:06:47.463Z,81.93
2022-10-20T09:07:47.447Z,81.82
2022-10-20T09:08:47.491Z,81.72
2022-10-20T09:09:47.440Z,81.41
2022-10-20T09:10:47.399Z,81.62
2022-10-20T09:11:47.387Z,81.41
2022-10-20T09:12:47.374Z,81.38
2022-10-20T09:14:47.366Z,80.66
2022-10-20T09:15:47.357Z,80.01
2022-10-20T09:17:02.361Z,79.50
2022-10-20T09:17:48.326Z,79.09
2022-10-20T09:18:47.375Z,78.78
2022-10-20T09:19:47.300Z,79.02
2022-10-20T09:20:47.279Z,79.13
2022-10-20T09:21:47.259Z,80.05
2022-10-20T09:22:47.253Z,80.35
2022-10-20T09:23:47.295Z,80.08
2022-10-20T09:24:47.223Z,80.39
2022-10-20T09:25:47.225Z,80.35
2022-10-20T09:27:02.444Z,80.15
2022-10-20T09:27:48.191Z,80.01
2022-10-20T09:29:02.118Z,79.09
2022-10-20T09:29:48.175Z,77.97
2022-10-20T09:30:47.139Z,77.86
2022-10-20T09:31:47.135Z,77.93
2022-10-20T09:32:48.032Z,77.42
2022-10-20T09:33:48.114Z,77.93
2022-10-20T09:34:47.087Z,77.38
2022-10-20T09:35:47.070Z,77.28
2022-10-20T09:36:47.050Z,77.86
2022-10-20T09:37:47.069Z,77.04
2022-10-20T09:38:47.034Z,76.36
2022-10-20T09:39:50.167Z,77.31
2022-10-20T09:40:48.018Z,77.01
2022-10-20T09:41:46.989Z,76.81
2022-10-20T09:42:47.023Z,76.81
2022-10-20T09:43:46.983Z,77.38
2022-10-20T09:44:46.950Z,76.87
2022-10-20T09:45:46.960Z,77.59
2022-10-20T09:46:46.950Z,77.93
2022-10-20T09:47:46.916Z,77.59
2022-10-20T09:48:46.895Z,77.34
2022-10-20T09:49:46.904Z,76.09
2022-10-20T09:50:46.891Z,75.48
2022-10-20T09:51:46.916Z,75.78
2022-10-20T09:52:46.856Z,75.48
2022-10-20T09:53:46.850Z,75.44
2022-10-20T09:54:46.821Z,75.23
2022-10-20T09:55:46.831Z,74.69
2022-10-20T09:56:46.791Z,73.97
2022-10-20T09:57:46.778Z,73.91
2022-10-20T09:58:46.783Z,74.62
2022-10-20T09:59:46.766Z,75.64
2022-10-20T10:00:46.802Z,75.10
2022-10-20T10:01:46.725Z,75.13
2022-10-20T10:02:46.709Z,73.91
2022-10-20T10:03:46.701Z,74.42
2022-10-20T10:04:46.697Z,74.18
2022-10-20T10:05:46.722Z,74.18
2022-10-20T10:06:46.661Z,73.36
2022-10-20T10:07:46.646Z,73.97
2022-10-20T10:08:46.686Z,73.26
2022-10-20T10:09:46.659Z,73.77
2022-10-20T10:10:46.607Z,73.26
2022-10-20T10:11:46.600Z,73.26
2022-10-20T10:12:46.572Z,73.57
2022-10-20T10:13:46.660Z,73.33
2022-10-20T10:14:46.558Z,72.75
2022-10-20T10:15:46.564Z,73.91
2022-10-20T10:16:46.526Z,72.96
2022-10-20T10:17:46.520Z,72.72
2022-10-20T10:18:48.499Z,72.62
2022-10-20T10:19:46.487Z,72.72
2022-10-20T10:20:46.505Z,72.72
2022-10-20T10:21:46.480Z,72.78
2022-10-20T10:22:46.456Z,72.01
2022-10-20T10:23:46.485Z,72.08
2022-10-20T10:24:46.486Z,72.99
2022-10-20T10:25:46.461Z,72.38
2022-10-20T10:26:46.401Z,71.12
2022-10-20T10:27:46.382Z,72.45
2022-10-20T10:28:46.373Z,73.57
2022-10-20T10:29:46.362Z,72.34
2022-10-20T10:30:49.443Z,72.72
2022-10-20T10:31:46.342Z,72.25
2022-10-20T10:32:46.328Z,72.58
2022-10-20T10:33:46.310Z,72.45
2022-10-20T10:34:46.290Z,71.60
2022-10-20T10:35:46.286Z,71.50
2022-10-20T10:36:46.267Z,72.01
2022-10-20T10:37:46.251Z,70.75
2022-10-20T10:38:46.240Z,70.31
2022-10-20T10:39:46.239Z,69.74
2022-10-20T10:40:46.266Z,70.45
2022-10-20T10:41:46.222Z,71.26
2022-10-20T10:42:46.185Z,70.82
2022-10-20T10:43:48.607Z,70.55
2022-10-20T10:44:46.226Z,68.92
2022-10-20T10:45:46.172Z,70.25
2022-10-20T10:46:46.137Z,70.14
2022-10-20T10:47:46.465Z,69.87
2022-10-20T10:48:46.127Z,70.79
2022-10-20T10:49:46.099Z,70.79
2022-10-20T10:50:46.081Z,71.30
2022-10-20T10:51:46.057Z,71.64
2022-10-20T10:52:46.053Z,71.97
2022-10-20T10:53:46.054Z,71.50
2022-10-20T10:54:46.034Z,72.41
2022-10-20T10:55:49.617Z,72.52
2022-10-20T10:56:45.988Z,73.64
2022-10-20T10:57:46.005Z,73.40
2022-10-20T10:58:45.964Z,72.45
2022-10-20T10:59:45.985Z,71.80
2022-10-20T11:00:45.983Z,71.91
2022-10-20T11:01:45.917Z,71.40
2022-10-20T11:02:45.932Z,72.08
2022-10-20T11:03:45.895Z,71.16
2022-10-20T11:04:46.103Z,71.57
2022-10-20T11:05:45.871Z,70.96
2022-10-20T11:06:45.864Z,69.64
2022-10-20T11:07:45.838Z,70.31
2022-10-20T11:08:45.906Z,69.94
2022-10-20T11:09:45.816Z,70.89
2022-10-20T11:10:45.825Z,71.40
2022-10-20T11:11:45.810Z,71.36
2022-10-20T11:12:45.781Z,70.89
2022-10-20T11:13:45.757Z,69.77
2022-10-20T11:14:45.752Z,70.82
2022-10-20T11:15:45.736Z,70.51
2022-10-20T11:16:45.758Z,70.75
2022-10-20T11:17:45.716Z,71.56
2022-10-20T11:18:45.710Z,71.36
2022-10-20T11:19:45.679Z,71.87
2022-10-20T11:20:45.674Z,71.60
2022-10-20T11:21:45.670Z,72.31
2022-10-20T11:22:45.656Z,72.69
2022-10-20T11:23:45.626Z,72.38
2022-10-20T11:24:45.626Z,71.36
2022-10-20T11:25:45.617Z,71.97
2022-10-20T11:26:45.605Z,70.86
2022-10-20T11:27:45.578Z,71.16
2022-10-20T11:28:45.601Z,71.06
2022-10-20T11:29:45.549Z,71.06
2022-10-20T11:30:45.553Z,71.60
2022-10-20T11:31:45.519Z,70.75
2022-10-20T11:32:45.513Z,69.91
2022-10-20T11:33:45.508Z,69.09
2022-10-20T11:34:45.507Z,69.60
2022-10-20T11:35:45.466Z,70.38
2022-10-20T11:36:45.465Z,69.74
2022-10-20T11:37:45.445Z,69.13
2022-10-20T11:38:45.478Z,69.43
2022-10-20T11:39:45.433Z,68.49
2022-10-20T11:40:45.403Z,67.91
2022-10-20T11:41:45.398Z,68.62
2022-10-20T11:42:45.383Z,67.88
2022-10-20T11:43:45.359Z,68.15
2022-10-20T11:44:45.413Z,67.11
2022-10-20T11:45:45.331Z,65.96
2022-10-20T11:46:45.338Z,66.37
2022-10-20T11:47:45.314Z,66.44
2022-10-20T11:48:45.310Z,64.75
2022-10-20T11:49:45.302Z,65.86
2022-10-20T11:50:45.285Z,65.59
2022-10-20T11:51:45.260Z,65.04
2022-10-20T11:52:45.271Z,68.01
2022-10-20T11:53:45.232Z,67.68
2022-10-20T11:54:45.219Z,66.56
2022-10-20T11:55:45.217Z,66.63
2022-10-20T11:56:45.189Z,67.14
2022-10-20T11:57:45.208Z,66.37
2022-10-20T11:58:45.167Z,66.60
2022-10-20T11:59:45.147Z,65.52
2022-10-20T12:00:45.168Z,66.50
2022-10-20T12:01:45.177Z,66.57
2022-10-20T12:02:45.132Z,65.76
2022-10-20T12:03:45.134Z,64.61
2022-10-20T12:04:45.104Z,65.36
2022-10-20T12:05:45.068Z,64.41
2022-10-20T12:06:45.096Z,64.72
2022-10-20T12:07:45.054Z,65.42
2022-10-20T12:08:45.126Z,64.18
2022-10-20T12:09:45.057Z,64.69
2022-10-20T12:10:45.072Z,64.92
2022-10-20T12:11:45.245Z,65.02
2022-10-20T12:12:44.986Z,64.11
2022-10-20T12:13:45.012Z,64.25
2022-10-20T12:14:44.962Z,63.75
2022-10-20T12:15:44.934Z,63.01
2022-10-20T12:16:44.928Z,64.22
2022-10-20T12:17:44.923Z,63.54
2022-10-20T12:18:44.906Z,63.41
2022-10-20T12:19:44.959Z,63.44
2022-10-20T12:20:44.878Z,64.25
2022-10-20T12:21:44.860Z,63.13
2022-10-20T12:22:44.858Z,63.81
2022-10-20T12:23:44.828Z,62.98
2022-10-20T12:24:44.882Z,62.57
2022-10-20T12:25:44.862Z,62.87
2022-10-20T12:26:44.937Z,62.50
2022-10-20T12:27:44.782Z,64.86
2022-10-20T12:28:44.777Z,64.04
2022-10-20T12:29:44.765Z,64.15
2022-10-20T12:30:44.757Z,64.25
2022-10-20T12:31:44.721Z,63.67
2022-10-20T12:32:44.718Z,64.48
2022-10-20T12:33:44.728Z,64.21
2022-10-20T12:34:44.699Z,64.58
2022-10-20T12:35:44.681Z,64.69
2022-10-20T12:36:44.665Z,64.48
2022-10-20T12:37:46.283Z,63.87
2022-10-20T12:38:44.645Z,63.71
2022-10-20T12:39:44.687Z,63.28
2022-10-20T12:40:44.622Z,63.21
2022-10-20T12:41:44.592Z,62.60
2022-10-20T12:42:44.581Z,62.87
2022-10-20T12:43:44.574Z,61.87
2022-10-20T12:44:44.572Z,62.34
2022-10-20T12:45:44.554Z,61.91
2022-10-20T12:46:44.527Z,61.27
2022-10-20T12:47:44.512Z,60.36
2022-10-20T12:48:44.507Z,59.86
2022-10-20T12:49:44.503Z,61.77
2022-10-20T12:50:44.475Z,60.36
2022-10-20T12:51:44.488Z,61.51
2022-10-20T12:52:44.458Z,61.60
2022-10-20T12:53:44.436Z,60.36
2022-10-20T12:54:48.442Z,61.44
2022-10-20T12:55:44.412Z,61.14